Time;durP1;ratioP1;P1;durP2;ratioP2;P2;SDS_P1;SDS_P2;PMS_P1;PMS_P2;Temp;Humidity;BMP_temperature;BMP_pressure;BME280_temperature;BME280_humidity;BME280_pressure;Samples;Min_cycle;Max_cycle;Signal;HPM_P1;HPM_P2
2023/03/13 00:01:26;;;;;;;3.63;2.00;;;;;;;10.26;100.00;100193.50;5045525;28;20064;-80
2023/03/13 00:03:55;;;;;;;2.95;1.73;;;;;;;10.26;100.00;100184.06;5038936;28;20053;-81
2023/03/13 00:06:25;;;;;;;6.85;2.08;;;;;;;10.30;100.00;100182.44;5038537;28;20072;-78
2023/03/13 00:08:55;;;;;;;2.95;1.77;;;;;;;10.35;100.00;100182.53;5044769;28;20057;-80
2023/03/13 00:11:24;;;;;;;5.72;2.00;;;;;;;10.43;100.00;100175.81;5038276;28;20080;-78
2023/03/13 00:13:55;;;;;;;2.40;1.67;;;;;;;10.43;100.00;100161.16;5047525;28;20123;-77
2023/03/13 00:16:24;;;;;;;3.30;2.08;;;;;;;10.44;100.00;100164.59;5051741;28;20149;-78
2023/03/13 00:18:55;;;;;;;3.70;1.75;;;;;;;10.44;100.00;100167.19;5044656;28;20049;-79
2023/03/13 00:21:25;;;;;;;3.15;1.92;;;;;;;10.46;100.00;100166.38;5048910;28;20063;-78
2023/03/13 00:23:56;;;;;;;2.95;1.60;;;;;;;10.48;100.00;100158.66;5047746;28;20055;-83
2023/03/13 00:26:26;;;;;;;3.63;2.15;;;;;;;10.52;100.00;100170.81;5049693;28;20059;-80
2023/03/13 00:28:55;;;;;;;2.97;1.88;;;;;;;10.53;100.00;100157.03;5051040;28;20136;-79
2023/03/13 00:31:25;;;;;;;3.00;1.75;;;;;;;10.53;100.00;100157.03;5046567;28;20501;-77
2023/03/13 00:33:55;;;;;;;2.17;1.60;;;;;;;10.52;100.00;100157.88;5040461;28;20056;-76
2023/03/13 00:36:24;;;;;;;2.58;1.60;;;;;;;10.56;100.00;100161.41;5044861;28;20454;-78
2023/03/13 00:38:56;;;;;;;5.53;2.30;;;;;;;10.59;100.00;100151.13;5048218;28;20052;-76
2023/03/13 00:41:26;;;;;;;4.15;2.10;;;;;;;10.60;100.00;100138.19;5036213;28;20503;-75
2023/03/13 00:43:55;;;;;;;3.85;1.80;;;;;;;10.60;100.00;100140.78;5027307;28;20057;-76
2023/03/13 00:46:25;;;;;;;2.90;2.22;;;;;;;10.59;100.00;100140.78;5022348;28;20092;-75
2023/03/13 00:48:54;;;;;;;2.63;1.98;;;;;;;10.63;100.00;100143.47;5031776;28;20061;-79
2023/03/13 00:51:25;;;;;;;2.60;1.90;;;;;;;10.67;100.00;100134.91;5030583;28;20045;-77
2023/03/13 00:53:56;;;;;;;2.95;1.90;;;;;;;10.73;100.00;100143.63;5023370;28;20129;-77
2023/03/13 00:56:24;;;;;;;4.95;2.17;;;;;;;10.77;100.00;100140.25;5035451;28;20053;-77
2023/03/13 00:58:53;;;;;;;6.43;2.45;;;;;;;10.80;100.00;100133.41;5030987;28;20419;-77
2023/03/13 01:01:23;;;;;;;3.92;2.15;;;;;;;10.84;100.00;100134.34;5027481;28;20064;-77
2023/03/13 01:03:54;;;;;;;4.47;2.20;;;;;;;10.88;100.00;100134.44;5028258;28;20469;-77
2023/03/13 01:06:25;;;;;;;3.58;2.20;;;;;;;10.93;100.00;100129.34;5031081;28;20577;-77
2023/03/13 01:08:56;;;;;;;6.43;2.20;;;;;;;10.96;100.00;100124.22;5026579;28;20080;-76
2023/03/13 01:11:26;;;;;;;2.72;1.98;;;;;;;11.01;100.00;100129.47;5030778;28;20049;-79
2023/03/13 01:13:56;;;;;;;5.00;2.45;;;;;;;11.04;100.00;100125.22;5015620;28;20058;-78
2023/03/13 01:16:27;;;;;;;4.55;2.63;;;;;;;11.09;100.00;100127.91;5023629;28;20049;-79
2023/03/13 01:18:57;;;;;;;3.33;2.55;;;;;;;11.13;100.00;100123.63;5029066;28;20045;-77
2023/03/13 01:21:26;;;;;;;7.43;2.30;;;;;;;11.16;100.00;100123.69;5028700;28;20060;-78
2023/03/13 01:23:57;;;;;;;4.10;3.03;;;;;;;11.18;100.00;100121.97;5032621;28;21416;-77
2023/03/13 01:26:26;;;;;;;3.45;2.03;;;;;;;11.20;100.00;100125.47;5020198;28;20363;-75
2023/03/13 01:28:55;;;;;;;3.10;2.13;;;;;;;11.18;100.00;100124.56;5025360;28;20046;-79
2023/03/13 01:31:25;;;;;;;4.97;2.83;;;;;;;11.18;100.00;100122.88;5030608;28;20045;-79
2023/03/13 01:33:56;;;;;;;4.65;1.83;;;;;;;11.19;100.00;100118.56;5018735;28;20041;-79
2023/03/13 01:36:25;;;;;;;5.75;2.25;;;;;;;11.19;100.00;100123.75;5019674;28;20056;-79
2023/03/13 01:38:57;;;;;;;3.65;2.03;;;;;;;11.19;100.00;100113.38;5034414;28;20469;-80
2023/03/13 01:41:27;;;;;;;4.95;1.75;;;;;;;11.18;100.00;100116.81;5030330;27;20605;-78
2023/03/13 01:43:55;;;;;;;3.97;1.85;;;;;;;11.17;100.00;100115.06;5039738;28;20155;-79
2023/03/13 01:46:26;;;;;;;4.07;2.42;;;;;;;11.17;100.00;100115.06;5045047;28;20140;-80
2023/03/13 01:49:01;;;;;;;4.45;1.90;;;;;;;11.18;100.00;100129.75;5053460;28;20070;-81
2023/03/13 01:51:32;;;;;;;3.80;1.70;;;;;;;11.17;100.00;100115.06;5035913;28;20633;-79
2023/03/13 01:54:07;;;;;;;4.07;2.03;;;;;;;11.18;100.00;100111.63;5038288;28;20059;-82
2023/03/13 01:56:43;;;;;;;2.95;1.88;;;;;;;11.18;100.00;100109.94;5045238;28;20052;-85
2023/03/13 01:59:15;;;;;;;4.53;2.22;;;;;;;11.18;100.00;100103.84;5043698;28;20036;-83
2023/03/13 02:01:47;;;;;;;4.93;2.17;;;;;;;11.16;100.00;100109.03;5048757;28;20049;-84
2023/03/13 02:04:20;;;;;;;4.55;2.63;;;;;;;11.16;100.00;100103.00;5051643;28;20049;-79
2023/03/13 02:06:52;;;;;;;5.05;2.17;;;;;;;11.13;100.00;100103.78;5043727;28;20127;-80
2023/03/13 02:09:25;;;;;;;2.72;1.98;;;;;;;11.11;100.00;100101.19;5048146;28;20094;-79
2023/03/13 02:12:00;;;;;;;6.22;2.53;;;;;;;11.09;100.00;100097.69;5053330;28;20486;-80
2023/03/13 02:14:31;;;;;;;4.43;2.80;;;;;;;11.07;100.00;100101.97;5054414;28;20419;-78
2023/03/13 02:17:01;;;;;;;5.00;2.80;;;;;;;11.04;100.00;100101.94;5048804;28;20044;-77
2023/03/13 02:19:36;;;;;;;6.07;3.33;;;;;;;11.03;100.00;100105.34;5038089;28;20677;-77
2023/03/13 02:22:15;;;;;;;6.25;3.25;;;;;;;11.01;100.00;100099.28;5043881;28;20410;-76
2023/03/13 02:24:51;;;;;;;4.93;3.30;;;;;;;10.99;100.00;100111.31;5051216;28;20053;-79
2023/03/13 02:27:22;;;;;;;9.65;3.53;;;;;;;10.96;100.00;100100.91;5041997;28;20052;-79
2023/03/13 02:29:51;;;;;;;8.75;3.53;;;;;;;10.94;100.00;100097.44;5044077;28;20123;-80
2023/03/13 02:32:20;;;;;;;7.95;4.63;;;;;;;10.95;100.00;100099.19;5046709;28;20049;-79
2023/03/13 02:34:53;;;;;;;5.45;3.40;;;;;;;10.93;100.00;100098.28;5054986;28;20052;-81
2023/03/13 02:37:22;;;;;;;7.72;4.78;;;;;;;10.92;100.00;100099.09;5044203;28;20049;-81
2023/03/13 02:39:52;;;;;;;5.55;3.72;;;;;;;10.93;100.00;100092.25;5054773;28;20126;-80
2023/03/13 02:42:24;;;;;;;6.88;3.70;;;;;;;10.93;100.00;100095.69;5045257;27;20151;-82
2023/03/13 02:44:52;;;;;;;7.95;4.25;;;;;;;10.90;100.00;100091.34;5047952;28;20049;-85
2023/03/13 02:47:21;;;;;;;8.52;4.90;;;;;;;10.88;100.00;100092.13;5046831;28;20045;-81
2023/03/13 02:49:50;;;;;;;10.57;4.38;;;;;;;10.82;100.00;100086.88;5043166;28;20056;-83
2023/03/13 02:52:24;;;;;;;10.07;4.40;;;;;;;10.83;100.00;100097.22;5049191;28;20056;-83
2023/03/13 02:54:56;;;;;;;11.45;4.93;;;;;;;10.78;100.00;100092.81;5043518;28;20048;-78
2023/03/13 02:57:26;;;;;;;5.63;3.75;;;;;;;10.69;100.00;100102.16;5049645;28;20054;-82
2023/03/13 02:59:55;;;;;;;5.88;3.92;;;;;;;10.57;100.00;100086.41;5049877;28;20052;-82
2023/03/13 03:02:23;;;;;;;7.40;3.63;;;;;;;10.61;100.00;100087.34;5051118;28;20052;-80
2023/03/13 03:04:52;;;;;;;7.28;3.97;;;;;;;10.60;100.00;100083.00;5057177;28;20049;-84
2023/03/13 03:07:21;;;;;;;7.85;3.75;;;;;;;10.60;100.00;100076.09;5044473;28;20119;-82
2023/03/13 03:09:49;;;;;;;6.55;3.38;;;;;;;10.58;100.00;100083.00;5047194;28;20053;-83
2023/03/13 03:12:18;;;;;;;5.97;4.32;;;;;;;10.58;100.00;100077.81;5051406;28;20103;-82
2023/03/13 03:14:48;;;;;;;9.77;4.78;;;;;;;10.58;100.00;100071.75;5050395;28;20065;-85
2023/03/13 03:17:16;;;;;;;7.82;4.05;;;;;;;10.56;100.00;100083.78;5054013;28;20040;-84
2023/03/13 03:19:45;;;;;;;5.35;3.53;;;;;;;10.55;100.00;100088.09;5048152;28;20048;-79
2023/03/13 03:22:14;;;;;;;7.60;3.42;;;;;;;10.57;100.00;100076.06;5044366;28;20154;-81
2023/03/13 03:24:42;;;;;;;4.95;3.25;;;;;;;10.58;100.00;100080.41;5054664;28;20049;-82
2023/03/13 03:27:11;;;;;;;7.13;3.70;;;;;;;10.58;100.00;100075.25;5046687;28;20063;-80
2023/03/13 03:29:39;;;;;;;6.30;3.55;;;;;;;10.60;100.00;100080.41;5042604;28;20058;-81
2023/03/13 03:32:09;;;;;;;7.63;4.03;;;;;;;10.61;100.00;100077.88;5047575;28;20045;-82
2023/03/13 03:34:38;;;;;;;9.35;4.32;;;;;;;10.63;100.00;100083.09;5060878;28;20049;-82
2023/03/13 03:37:07;;;;;;;9.20;4.57;;;;;;;10.64;100.00;100077.91;5053268;28;20052;-83
2023/03/13 03:39:35;;;;;;;12.20;6.25;;;;;;;10.66;100.00;100076.22;5044442;28;20261;-81
2023/03/13 03:42:04;;;;;;;28.38;16.30;;;;;;;10.67;100.00;100083.16;5050143;27;20057;-81
2023/03/13 03:44:33;;;;;;;9.45;5.60;;;;;;;10.72;100.00;100075.50;5051137;28;20110;-80
2023/03/13 03:47:01;;;;;;;7.10;4.05;;;;;;;10.73;100.00;100076.34;5046718;28;20052;-77
2023/03/13 03:49:31;;;;;;;7.32;4.25;;;;;;;10.75;100.00;100069.50;5041272;28;20049;-84
2023/03/13 03:52:00;;;;;;;5.40;3.63;;;;;;;10.76;100.00;100068.63;5038894;28;20053;-82
2023/03/13 03:54:29;;;;;;;4.63;3.22;;;;;;;10.74;100.00;100070.31;5041675;28;20373;-80
2023/03/13 03:56:57;;;;;;;6.72;4.40;;;;;;;10.76;100.00;100068.63;5048760;28;20415;-80
2023/03/13 03:59:26;;;;;;;9.13;4.72;;;;;;;10.77;100.00;100068.66;5046981;28;20060;-80
2023/03/13 04:01:54;;;;;;;5.22;3.50;;;;;;;10.80;100.00;100075.63;5047781;28;20052;-78
2023/03/13 04:04:23;;;;;;;4.25;3.33;;;;;;;10.82;100.00;100084.28;5049689;28;20049;-82
2023/03/13 04:06:53;;;;;;;5.60;3.40;;;;;;;10.85;100.00;100085.19;5042660;28;20049;-84
2023/03/13 04:09:22;;;;;;;4.72;2.90;;;;;;;10.86;100.00;100079.19;5052062;28;20489;-80
2023/03/13 04:11:51;;;;;;;4.22;2.92;;;;;;;10.87;100.00;100080.06;5045595;28;20506;-82
2023/03/13 04:14:19;;;;;;;6.80;4.03;;;;;;;10.88;100.00;100081.78;5050430;28;20040;-78
2023/03/13 04:16:50;;;;;;;4.63;2.45;;;;;;;10.84;100.00;100080.00;5041206;28;20046;-82
2023/03/13 04:19:18;;;;;;;3.88;2.60;;;;;;;10.79;100.00;100082.50;5052114;28;20053;-78
2023/03/13 04:21:49;;;;;;;4.30;2.10;;;;;;;10.73;100.00;100086.72;5045829;28;20049;-86
2023/03/13 04:24:28;;;;;;;6.70;3.97;;;;;;;10.72;100.00;100077.19;5046599;28;20060;-86
2023/03/13 04:26:57;;;;;;;2.78;1.83;;;;;;;10.72;100.00;100077.19;5050916;28;20054;-85
2023/03/13 04:29:26;;;;;;;4.07;2.30;;;;;;;10.70;100.00;100079.75;5052609;28;20055;-81
2023/03/13 04:31:54;;;;;;;4.75;2.70;;;;;;;10.67;100.00;100078.00;5049531;28;20057;-83
2023/03/13 04:34:23;;;;;;;2.28;1.42;;;;;;;10.70;100.00;100077.19;5045822;28;20056;-82
2023/03/13 04:36:51;;;;;;;6.30;2.13;;;;;;;10.72;100.00;100074.59;5057452;28;20560;-83
2023/03/13 04:39:23;;;;;;;1.75;1.08;;;;;;;10.73;100.00;100076.34;5047302;28;20067;-84
2023/03/13 04:42:01;;;;;;;1.98;1.23;;;;;;;10.74;100.00;100083.25;5048776;27;20055;-82
2023/03/13 04:44:36;;;;;;;1.20;0.60;;;;;;;10.77;100.00;100075.56;5050109;28;20477;-85
2023/03/13 04:47:04;;;;;;;1.80;1.08;;;;;;;10.78;100.00;100075.56;5054134;28;20052;-78
2023/03/13 04:49:33;;;;;;;2.10;0.70;;;;;;;10.76;100.00;100066.03;5054020;28;20506;-81
2023/03/13 04:52:02;;;;;;;0.85;0.85;;;;;;;10.85;100.00;100076.56;5050587;28;20076;-82
2023/03/13 04:54:31;;;;;;;0.50;0.40;;;;;;;10.86;100.00;100079.19;5051694;28;20080;-82
2023/03/13 04:57:01;;;;;;;0.57;0.50;;;;;;;10.84;100.00;100075.69;5047641;28;20044;-81
2023/03/13 04:59:30;;;;;;;2.85;0.60;;;;;;;10.82;100.00;100074.78;5053114;28;20048;-84
2023/03/13 05:01:58;;;;;;;3.00;0.90;;;;;;;10.85;100.00;100071.38;5045115;28;20049;-81
2023/03/13 05:04:27;;;;;;;1.05;0.70;;;;;;;10.87;100.00;100064.53;5043107;28;20094;-83
2023/03/13 05:07:06;;;;;;;1.10;0.73;;;;;;;10.87;100.00;100064.53;5042806;28;20425;-83
2023/03/13 05:09:35;;;;;;;0.95;0.50;;;;;;;10.87;100.00;100069.69;5045587;28;20053;-80
2023/03/13 05:12:07;;;;;;;1.20;0.93;;;;;;;10.88;100.00;100061.97;5047219;28;20045;-84
2023/03/13 05:14:35;;;;;;;1.05;0.63;;;;;;;10.92;100.00;100065.47;5048901;28;20131;-82
2023/03/13 05:17:04;;;;;;;0.57;0.30;;;;;;;10.93;100.00;100063.78;5045848;28;20068;-81
2023/03/13 05:19:33;;;;;;;0.30;0.20;;;;;;;10.94;100.00;100056.00;5043338;28;20045;-83
2023/03/13 05:22:01;;;;;;;0.80;0.50;;;;;;;10.98;100.00;100068.16;5045373;28;20670;-84
2023/03/13 05:24:30;;;;;;;0.80;0.20;;;;;;;11.00;100.00;100061.31;5047888;28;20048;-83
2023/03/13 05:26:58;;;;;;;0.40;0.40;;;;;;;11.03;100.00;100057.88;5045712;28;20545;-83
2023/03/13 05:29:28;;;;;;;0.35;0.30;;;;;;;11.06;100.00;100051.06;5049523;28;20049;-80
2023/03/13 05:31:57;;;;;;;1.27;0.38;;;;;;;11.09;100.00;100055.41;5048372;28;20055;-81
2023/03/13 05:34:26;;;;;;;0.70;0.40;;;;;;;11.13;100.00;100053.72;5044704;28;20098;-81
2023/03/13 05:36:54;;;;;;;1.83;0.30;;;;;;;11.13;100.00;100053.72;5048714;28;20051;-82
2023/03/13 05:39:23;;;;;;;0.40;0.30;;;;;;;11.11;100.00;100046.81;5045339;28;20061;-82
2023/03/13 05:41:51;;;;;;;0.30;0.17;;;;;;;11.12;100.00;100039.91;5050635;28;20143;-81
2023/03/13 05:44:20;;;;;;;0.20;0.20;;;;;;;11.18;100.00;100049.47;5049524;28;20048;-81
2023/03/13 05:46:50;;;;;;;0.30;0.10;;;;;;;11.16;100.00;100043.44;5040365;28;20179;-83
2023/03/13 05:49:18;;;;;;;0.30;0.20;;;;;;;11.16;100.00;100043.44;5047563;28;20056;-80
2023/03/13 05:51:47;;;;;;;0.10;0.10;;;;;;;11.16;100.00;100040.84;5048024;28;20056;-83
2023/03/13 05:54:16;;;;;;;0.40;0.22;;;;;;;11.18;100.00;100036.53;5048637;28;20045;-82
2023/03/13 05:56:47;;;;;;;0.80;0.40;;;;;;;11.18;100.00;100039.13;5047586;28;20057;-81
2023/03/13 05:59:16;;;;;;;0.30;0.20;;;;;;;11.18;100.00;100036.53;5045648;28;20041;-84
2023/03/13 06:01:44;;;;;;;0.38;0.20;;;;;;;11.16;100.00;100033.06;5049187;28;20112;-83
2023/03/13 06:04:14;;;;;;;0.20;0.20;;;;;;;11.17;100.00;100027.03;5045636;28;20410;-83
2023/03/13 06:06:43;;;;;;;0.45;0.25;;;;;;;11.19;100.00;100026.22;5045277;28;20099;-82
2023/03/13 06:09:11;;;;;;;0.75;0.20;;;;;;;11.21;100.00;100018.47;5048543;28;20041;-82
2023/03/13 06:11:40;;;;;;;0.40;0.17;;;;;;;11.25;100.00;100026.31;5043699;28;20041;-82
2023/03/13 06:14:09;;;;;;;0.80;0.40;;;;;;;11.25;100.00;100031.50;5046551;28;20045;-81
2023/03/13 06:16:37;;;;;;;0.35;0.20;;;;;;;11.28;100.00;100030.66;5043663;28;20069;-83
2023/03/13 06:19:06;;;;;;;1.35;0.30;;;;;;;11.26;100.00;100019.41;5042325;28;20048;-83
2023/03/13 06:21:36;;;;;;;2.22;0.20;;;;;;;11.31;100.00;100020.34;5045336;28;20517;-81
2023/03/13 06:24:05;;;;;;;0.55;0.22;;;;;;;11.32;100.00;100022.09;5046349;28;20040;-82
2023/03/13 06:26:33;;;;;;;0.50;0.38;;;;;;;11.36;100.00;100023.00;5046976;28;20576;-83
2023/03/13 06:29:03;;;;;;;0.35;0.15;;;;;;;11.39;100.00;100023.06;5048064;28;20051;-83
2023/03/13 06:31:31;;;;;;;0.40;0.40;;;;;;;11.42;100.00;100029.13;5043814;28;20137;-83
2023/03/13 06:34:00;;;;;;;0.82;0.30;;;;;;;11.44;100.00;100019.66;5044043;28;20052;-83
2023/03/13 06:36:32;;;;;;;0.30;0.20;;;;;;;11.46;100.00;100020.56;5049822;28;20092;-83
2023/03/13 06:39:03;;;;;;;0.30;0.20;;;;;;;11.48;100.00;100018.88;5060626;28;20105;-83
2023/03/13 06:41:31;;;;;;;0.50;0.30;;;;;;;11.51;100.00;100023.22;5050934;28;20049;-84
2023/03/13 06:44:00;;;;;;;0.20;0.20;;;;;;;11.51;100.00;100013.72;5049887;28;20053;-84
2023/03/13 06:46:28;;;;;;;1.38;0.57;;;;;;;11.52;100.00;100010.31;5048637;28;20044;-84
2023/03/13 06:48:58;;;;;;;0.35;0.30;;;;;;;11.51;100.00;100005.94;5051342;28;20057;-85
2023/03/13 06:51:26;;;;;;;0.55;0.32;;;;;;;11.51;100.00;99997.31;5053027;28;20098;-85
2023/03/13 06:53:55;;;;;;;0.43;0.30;;;;;;;11.53;100.00;100003.38;5048560;28;20139;-85
2023/03/13 06:56:25;;;;;;;2.20;0.40;;;;;;;11.52;100.00;99999.94;5054035;28;20048;-84
2023/03/13 06:58:54;;;;;;;0.50;0.45;;;;;;;11.52;100.00;99993.84;5046743;28;20066;-84
2023/03/13 07:01:23;;;;;;;1.45;0.38;;;;;;;11.53;100.00;99996.47;5047872;28;20045;-84
2023/03/13 07:03:58;;;;;;;1.95;0.40;;;;;;;11.55;100.00;99998.25;5049881;28;20128;-83
2023/03/13 07:06:27;;;;;;;0.30;0.28;;;;;;;11.55;100.00;99993.06;5045661;28;20057;-83
2023/03/13 07:08:55;;;;;;;0.70;0.40;;;;;;;11.56;100.00;99994.78;5050935;28;20096;-84
2023/03/13 07:11:26;;;;;;;0.30;0.30;;;;;;;11.56;100.00;99981.81;5056568;28;20091;-83
2023/03/13 07:13:56;;;;;;;1.23;0.65;;;;;;;11.53;100.00;99986.13;5060034;28;20041;-83
2023/03/13 07:16:25;;;;;;;0.88;0.43;;;;;;;11.54;100.00;99989.56;5053775;28;20051;-84
2023/03/13 07:18:53;;;;;;;0.63;0.40;;;;;;;11.56;100.00;99984.41;5045563;28;20045;-85
2023/03/13 07:21:22;;;;;;;1.27;0.43;;;;;;;11.55;100.00;99974.91;5055305;28;20045;-84
2023/03/13 07:23:50;;;;;;;1.30;0.57;;;;;;;11.55;100.00;99980.97;5051979;28;20094;-83
2023/03/13 07:26:22;;;;;;;0.80;0.50;;;;;;;11.53;100.00;99980.06;5050735;28;20044;-85
2023/03/13 07:28:52;;;;;;;2.70;0.60;;;;;;;11.48;100.00;99985.19;5050098;28;20045;-83
2023/03/13 07:31:22;;;;;;;1.00;0.50;;;;;;;11.43;100.00;99978.19;5049948;28;20100;-83
2023/03/13 07:33:53;;;;;;;1.30;0.65;;;;;;;11.37;100.00;99984.19;5051020;28;20041;-82
2023/03/13 07:36:21;;;;;;;0.43;0.38;;;;;;;11.31;100.00;99984.97;5053322;28;20107;-82
2023/03/13 07:38:51;;;;;;;1.00;0.52;;;;;;;11.29;100.00;99980.59;5045402;28;20103;-83
2023/03/13 07:41:19;;;;;;;0.70;0.43;;;;;;;11.29;100.00;99976.31;5056159;28;20044;-83
2023/03/13 07:43:48;;;;;;;1.10;0.43;;;;;;;11.29;100.00;99967.66;5051484;27;20102;-83
2023/03/13 07:46:20;;;;;;;0.40;0.30;;;;;;;11.28;100.00;99973.69;5050852;28;20057;-83
2023/03/13 07:48:48;;;;;;;0.43;0.40;;;;;;;11.26;100.00;99973.66;5060183;28;20080;-82
2023/03/13 07:51:19;;;;;;;0.52;0.30;;;;;;;11.27;100.00;99966.75;5049138;28;20486;-83
2023/03/13 07:53:48;;;;;;;0.57;0.40;;;;;;;11.26;100.00;99959.84;5045506;28;20510;-83
2023/03/13 07:56:18;;;;;;;0.15;0.15;;;;;;;11.28;100.00;99960.75;5051132;28;20048;-84
2023/03/13 07:58:46;;;;;;;0.70;0.45;;;;;;;11.26;100.00;99959.84;5036076;28;20049;-83
2023/03/13 08:01:20;;;;;;;0.68;0.40;;;;;;;11.25;100.00;99955.53;5048060;28;20490;-82
2023/03/13 08:03:49;;;;;;;0.57;0.43;;;;;;;11.25;100.00;99952.94;5051035;28;20055;-82
2023/03/13 08:06:20;;;;;;;1.00;0.65;;;;;;;11.25;100.00;99960.72;5051373;28;20556;-82
2023/03/13 08:08:49;;;;;;;0.45;0.40;;;;;;;11.27;100.00;99956.38;5057895;28;20090;-82
2023/03/13 08:11:19;;;;;;;2.15;0.40;;;;;;;11.28;100.00;99958.16;5055673;28;20053;-82
2023/03/13 08:13:48;;;;;;;1.17;0.30;;;;;;;11.27;100.00;99952.09;5055086;28;20044;-81
2023/03/13 08:16:20;;;;;;;3.25;1.13;;;;;;;11.28;100.00;99959.00;5042759;28;20046;-80
2023/03/13 08:18:50;;;;;;;0.90;0.40;;;;;;;11.28;100.00;99956.41;5049069;28;20304;-81
2023/03/13 08:21:21;;;;;;;2.45;0.82;;;;;;;11.29;100.00;99970.22;5058601;28;20044;-81
2023/03/13 08:23:50;;;;;;;0.57;0.40;;;;;;;11.29;100.00;99954.69;5052020;28;20088;-81
2023/03/13 08:26:20;;;;;;;0.90;0.43;;;;;;;11.30;100.00;99956.44;5046154;28;20129;-83
2023/03/13 08:28:54;;;;;;;0.25;0.25;;;;;;;11.26;100.00;99959.84;5051703;28;20482;-81
2023/03/13 08:31:25;;;;;;;1.20;0.45;;;;;;;11.21;100.00;99953.75;5043624;28;20396;-81
2023/03/13 08:33:54;;;;;;;0.40;0.30;;;;;;;11.15;100.00;99944.16;5050777;28;20052;-82
2023/03/13 08:36:24;;;;;;;0.40;0.30;;;;;;;11.16;100.00;99958.00;5046329;28;21258;-81
2023/03/13 08:38:54;;;;;;;0.73;0.60;;;;;;;11.15;100.00;99958.81;5053359;28;20123;-81
2023/03/13 08:41:24;;;;;;;0.40;0.40;;;;;;;11.14;100.00;99955.38;5052328;28;20110;-81
2023/03/13 08:43:54;;;;;;;0.52;0.40;;;;;;;11.17;100.00;99952.81;5052156;27;20114;-81
2023/03/13 08:46:25;;;;;;;1.67;0.52;;;;;;;11.15;100.00;99956.22;5050409;28;20518;-82
2023/03/13 08:48:54;;;;;;;2.92;0.40;;;;;;;11.14;100.00;99945.00;5046620;28;20041;-82
2023/03/13 08:51:24;;;;;;;0.25;0.22;;;;;;;11.14;100.00;99955.38;5051875;28;20533;-83
2023/03/13 08:53:54;;;;;;;0.32;0.28;;;;;;;11.14;100.00;99946.75;5051387;28;20518;-81
2023/03/13 08:56:30;;;;;;;1.30;0.40;;;;;;;11.06;100.00;99931.97;5049594;28;20044;-81
2023/03/13 08:59:00;;;;;;;0.80;0.40;;;;;;;11.13;100.00;99952.75;5042725;28;20057;-81
2023/03/13 09:01:32;;;;;;;6.45;1.20;;;;;;;11.14;100.00;99952.78;5053481;28;20049;-80
2023/03/13 09:04:01;;;;;;;0.20;0.20;;;;;;;11.11;100.00;99953.59;5044663;28;20049;-79
2023/03/13 09:06:29;;;;;;;0.25;0.20;;;;;;;11.11;100.00;99950.16;5050455;28;20714;-80
2023/03/13 09:08:58;;;;;;;2.47;0.30;;;;;;;11.12;100.00;99949.28;5053794;28;20102;-79
2023/03/13 09:11:27;;;;;;;1.73;0.28;;;;;;;11.13;100.00;99957.91;5065755;28;20135;-81
2023/03/13 09:13:58;;;;;;;1.70;0.50;;;;;;;11.13;100.00;99958.78;5056457;28;20529;-82
2023/03/13 09:16:28;;;;;;;4.72;0.40;;;;;;;11.10;100.00;99943.22;5054702;28;20045;-83
2023/03/13 09:18:59;;;;;;;2.65;1.05;;;;;;;11.09;100.00;99952.72;5048669;28;20046;-83
2023/03/13 09:21:29;;;;;;;0.30;0.30;;;;;;;11.08;100.00;99940.59;5057568;28;20045;-82
2023/03/13 09:24:01;;;;;;;0.35;0.22;;;;;;;11.09;100.00;99944.94;5047741;28;20502;-83
2023/03/13 09:26:30;;;;;;;1.55;0.40;;;;;;;11.04;100.00;99940.53;5048988;28;20061;-82
2023/03/13 09:28:59;;;;;;;1.70;0.73;;;;;;;10.98;100.00;99938.75;5048692;28;20037;-81
2023/03/13 09:31:29;;;;;;;0.75;0.47;;;;;;;10.95;100.00;99941.28;5048114;28;20052;-81
2023/03/13 09:34:00;;;;;;;3.30;0.32;;;;;;;10.92;100.00;99942.94;5044607;28;20127;-80
2023/03/13 09:36:29;;;;;;;0.73;0.30;;;;;;;10.89;100.00;99938.59;5055576;28;20052;-80
2023/03/13 09:38:59;;;;;;;2.30;0.55;;;;;;;10.84;100.00;99940.25;5039388;28;20067;-84
2023/03/13 09:41:34;;;;;;;2.00;0.40;;;;;;;10.80;100.00;99934.16;5044401;28;20105;-79
2023/03/13 09:44:12;;;;;;;0.25;0.15;;;;;;;10.78;100.00;99930.66;5041647;28;20110;-81
2023/03/13 09:46:46;;;;;;;0.10;0.10;;;;;;;10.79;100.00;99924.66;5046380;28;20529;-81
2023/03/13 09:49:29;;;;;;;0.43;0.35;;;;;;;10.79;100.00;99924.66;5055106;28;20041;-83
2023/03/13 09:52:06;;;;;;;0.75;0.30;;;;;;;10.77;100.00;99917.72;5049069;28;20719;-82
2023/03/13 09:54:39;;;;;;;2.80;0.30;;;;;;;10.77;100.00;99912.56;5044025;28;20691;-82
2023/03/13 09:57:12;;;;;;;;;;;;;;;10.78;100.00;99919.44;5058650;28;20044;-84
2023/03/13 09:59:50;;;;;;;0.30;0.20;;;;;;;10.81;100.00;99924.66;5043773;28;19951;-83
2023/03/13 10:02:37;;;;;;;2.45;0.43;;;;;;;10.85;100.00;99919.56;5057307;28;20103;-82
2023/03/13 10:05:24;;;;;;;1.88;0.30;;;;;;;10.87;100.00;99910.09;5053629;28;20056;-83
2023/03/13 10:07:57;;;;;;;0.10;0.10;;;;;;;10.89;100.00;99907.53;5043504;28;20132;-82
2023/03/13 10:10:38;;;;;;;0.50;0.20;;;;;;;10.86;100.00;99894.56;5052165;28;20049;-84
2023/03/13 10:13:20;;;;;;;0.17;0.17;;;;;;;10.93;100.00;99906.75;5045905;28;20052;-84
2023/03/13 10:15:52;;;;;;;0.15;0.15;;;;;;;10.92;100.00;99891.19;5056828;28;20130;-83
2023/03/13 10:18:23;;;;;;;0.20;0.20;;;;;;;10.94;100.00;99894.66;5051871;28;20057;-84
2023/03/13 10:20:57;;;;;;;0.73;0.10;;;;;;;10.96;100.00;99893.84;5052404;28;20068;-83
2023/03/13 10:23:36;;;;;;;0.30;0.17;;;;;;;11.00;100.00;99879.25;5057849;28;20401;-83
2023/03/13 10:26:04;;;;;;;0.50;0.20;;;;;;;11.03;100.00;99885.31;5053279;28;20102;-82
2023/03/13 10:28:33;;;;;;;0.55;0.40;;;;;;;11.06;100.00;99877.59;5049966;28;20102;-82
2023/03/13 10:31:08;;;;;;;3.95;0.28;;;;;;;11.09;100.00;99882.81;5048550;28;20144;-82
2023/03/13 10:33:38;;;;;;;0.40;0.30;;;;;;;11.12;100.00;99874.22;5046117;28;20045;-83
2023/03/13 10:36:11;;;;;;;1.27;0.20;;;;;;;11.13;100.00;99875.94;5048313;28;20048;-83
2023/03/13 10:38:51;;;;;;;1.02;0.15;;;;;;;11.16;100.00;99875.13;5050774;28;20049;-82
2023/03/13 10:41:29;;;;;;;1.92;0.30;;;;;;;11.11;100.00;99862.13;5046368;28;20106;-83
2023/03/13 10:44:03;;;;;;;1.08;0.40;;;;;;;11.16;100.00;99864.78;5052276;27;20151;-84
2023/03/13 10:46:36;;;;;;;1.65;0.20;;;;;;;11.11;100.00;99863.00;5039725;28;20057;-83
2023/03/13 10:49:15;;;;;;;1.85;0.70;;;;;;;11.11;100.00;99867.31;5053642;28;20124;-83
2023/03/13 10:51:49;;;;;;;0.30;0.20;;;;;;;11.13;100.00;99864.72;5052462;28;20083;-84
2023/03/13 10:54:23;;;;;;;0.38;0.28;;;;;;;11.16;100.00;99859.59;5057076;28;20045;-84
2023/03/13 10:57:09;;;;;;;0.35;0.20;;;;;;;11.16;100.00;99852.69;5053829;28;20510;-83
2023/03/13 10:59:48;;;;;;;0.50;0.20;;;;;;;11.16;100.00;99841.47;5046509;28;20087;-82
2023/03/13 11:02:24;;;;;;;0.63;0.30;;;;;;;11.17;100.00;99838.03;5049222;28;20103;-82
2023/03/13 11:04:58;;;;;;;0.30;0.20;;;;;;;11.15;100.00;99842.31;5044334;28;20101;-80
2023/03/13 11:07:45;;;;;;;;;;;;;;;;;;;;;
2023/03/13 11:10:19;;;;;;;0.55;0.35;;;;;;;11.07;100.00;99834.47;5051359;28;20498;-80
2023/03/13 11:12:52;;;;;;;1.10;0.30;;;;;;;11.04;100.00;99840.47;5051603;28;20038;-81
2023/03/13 11:15:24;;;;;;;2.08;0.43;;;;;;;11.03;100.00;99850.78;5052760;28;20118;-81
2023/03/13 11:17:59;;;;;;;0.40;0.25;;;;;;;11.01;100.00;99840.41;5040221;28;20046;-83
2023/03/13 11:20:31;;;;;;;0.50;0.30;;;;;;;10.97;100.00;99843.84;5050113;28;20102;-83
2023/03/13 11:23:19;;;;;;;0.45;0.30;;;;;;;10.92;100.00;99842.88;5050675;28;20045;-82
2023/03/13 11:26:09;;;;;;;2.28;0.47;;;;;;;10.86;100.00;99837.63;5045975;28;20095;-84
2023/03/13 11:28:51;;;;;;;0.17;0.17;;;;;;;10.81;100.00;99841.84;5051559;28;20139;-82
2023/03/13 11:31:32;;;;;;;0.47;0.30;;;;;;;10.78;100.00;99842.69;5047701;28;20040;-82
2023/03/13 11:34:10;;;;;;;0.70;0.32;;;;;;;10.75;100.00;99836.63;5055416;28;20041;-85
2023/03/13 11:36:48;;;;;;;0.47;0.30;;;;;;;10.74;100.00;99835.72;5051996;28;20064;-84
2023/03/13 11:42:43;;;;;;;0.88;0.65;;;;;;;10.74;100.00;99837.44;4773991;27;8872510;-82